Time;durP1;ratioP1;P1;durP2;ratioP2;P2;SDS_P1;SDS_P2;PMS_P1;PMS_P2;Temp;Humidity;BMP_temperature;BMP_pressure;BME280_temperature;BME280_humidity;BME280_pressure;Samples;Min_cycle;Max_cycle;Signal;HPM_P1;HPM_P2
2023/06/29 00:00:22;;;;;;;10.20;7.50;;;21.70;99.90;;;;;;5032304;28;20404;-61
2023/06/29 00:02:48;;;;;;;8.77;7.70;;;21.70;99.90;;;;;;5032307;28;20901;-61
2023/06/29 00:05:15;;;;;;;8.20;7.50;;;21.80;99.90;;;;;;5036340;28;20535;-61
2023/06/29 00:07:41;;;;;;;8.37;7.77;;;21.80;99.90;;;;;;5037564;28;20459;-61
2023/06/29 00:10:08;;;;;;;7.80;7.20;;;21.70;99.90;;;;;;5032786;28;20417;-62
2023/06/29 00:12:35;;;;;;;9.03;8.23;;;21.70;99.90;;;;;;5031297;28;20766;-61
2023/06/29 00:15:01;;;;;;;9.80;7.93;;;21.70;99.90;;;;;;5034649;28;20424;-62
2023/06/29 00:17:27;;;;;;;8.93;7.87;;;21.80;99.90;;;;;;5052282;28;20954;-62
2023/06/29 00:19:53;;;;;;;8.30;7.60;;;21.70;99.90;;;;;;5017329;28;20222;-62
2023/06/29 00:22:21;;;;;;;8.67;7.77;;;21.70;99.90;;;;;;5031457;28;20166;-61
2023/06/29 00:24:55;;;;;;;8.40;7.60;;;21.80;99.90;;;;;;5032759;28;20313;-61
2023/06/29 00:27:22;;;;;;;8.00;7.40;;;21.70;99.90;;;;;;5032244;28;20465;-61
2023/06/29 00:29:48;;;;;;;8.40;7.60;;;21.80;99.90;;;;;;5034968;28;21169;-62
2023/06/29 00:32:14;;;;;;;8.20;7.50;;;21.70;99.90;;;;;;5038254;28;20507;-61
2023/06/29 00:34:40;;;;;;;8.20;7.47;;;21.80;99.90;;;;;;5036810;28;20511;-61
2023/06/29 00:37:06;;;;;;;11.43;8.03;;;21.70;99.90;;;;;;5035921;28;20201;-61
2023/06/29 00:39:32;;;;;;;9.20;8.40;;;21.70;99.90;;;;;;5035387;28;20528;-61
2023/06/29 00:41:58;;;;;;;8.97;7.60;;;21.60;99.90;;;;;;5035457;28;20187;-62
2023/06/29 00:44:24;;;;;;;7.70;7.10;;;21.70;99.90;;;;;;5038908;28;20892;-61
2023/06/29 00:46:52;;;;;;;8.17;7.50;;;21.70;99.90;;;;;;5036568;28;20193;-61
2023/06/29 00:49:21;;;;;;;7.93;7.33;;;21.70;99.90;;;;;;5038295;28;20539;-61
2023/06/29 00:51:52;;;;;;;8.30;7.23;;;21.70;99.90;;;;;;5044872;28;20474;-62
2023/06/29 00:54:18;;;;;;;10.80;7.77;;;21.70;99.90;;;;;;5041636;28;20420;-61
2023/06/29 00:56:45;;;;;;;8.83;7.87;;;21.70;99.90;;;;;;5036432;28;20451;-61
2023/06/29 00:59:12;;;;;;;7.43;6.80;;;21.70;99.90;;;;;;5047602;28;20427;-62
2023/06/29 01:01:40;;;;;;;8.23;7.50;;;21.70;99.90;;;;;;5049220;28;20440;-61
2023/06/29 01:04:09;;;;;;;10.70;7.87;;;21.70;99.90;;;;;;5035260;28;20503;-61
2023/06/29 01:06:46;;;;;;;8.97;8.17;;;21.70;99.90;;;;;;5047301;28;20445;-62
2023/06/29 01:09:13;;;;;;;10.43;7.60;;;21.70;99.90;;;;;;5044734;28;20626;-62
2023/06/29 01:11:39;;;;;;;8.03;7.33;;;21.70;99.90;;;;;;5035611;28;20413;-62
2023/06/29 01:14:06;;;;;;;9.17;7.60;;;21.70;99.90;;;;;;5035030;28;20812;-61
2023/06/29 01:16:36;;;;;;;7.93;6.90;;;21.70;99.90;;;;;;5034554;28;20178;-62
2023/06/29 01:19:06;;;;;;;7.90;7.27;;;21.70;99.90;;;;;;5035299;28;20927;-61
2023/06/29 01:21:41;;;;;;;8.57;7.87;;;21.70;99.90;;;;;;5046818;28;20412;-62
2023/06/29 01:24:08;;;;;;;8.43;7.60;;;21.70;99.90;;;;;;5039246;28;20562;-62
2023/06/29 01:26:38;;;;;;;9.03;8.13;;;21.60;99.90;;;;;;5034779;28;21240;-61
2023/06/29 01:29:05;;;;;;;8.50;7.80;;;21.60;99.90;;;;;;5035432;28;20448;-61
2023/06/29 01:31:30;;;;;;;8.03;7.13;;;21.60;99.90;;;;;;5033763;28;20432;-61
2023/06/29 01:33:56;;;;;;;7.73;7.03;;;21.60;99.90;;;;;;5035067;28;20448;-61
2023/06/29 01:36:45;;;;;;;7.97;7.37;;;21.60;99.90;;;;;;5034692;28;20174;-61
2023/06/29 01:39:17;;;;;;;7.80;7.20;;;21.60;99.90;;;;;;5038065;28;20496;-61
2023/06/29 01:41:44;;;;;;;9.37;8.10;;;21.60;99.90;;;;;;5045820;28;20429;-61
2023/06/29 01:44:15;;;;;;;10.43;7.70;;;21.60;99.90;;;;;;5037725;28;20427;-61
2023/06/29 01:46:42;;;;;;;8.10;7.50;;;21.60;99.90;;;;;;5034030;28;20400;-61
2023/06/29 01:49:08;;;;;;;7.47;6.87;;;21.60;99.90;;;;;;5034609;28;20444;-61
2023/06/29 01:51:34;;;;;;;8.43;7.63;;;21.60;99.90;;;;;;5033925;28;20432;-61
2023/06/29 01:54:00;;;;;;;8.30;7.50;;;21.70;99.90;;;;;;5046482;28;20491;-61
2023/06/29 01:56:25;;;;;;;8.30;7.67;;;21.60;99.90;;;;;;5034000;28;20200;-61
2023/06/29 01:58:51;;;;;;;9.00;8.20;;;21.60;99.90;;;;;;5034687;28;20185;-61
2023/06/29 02:01:17;;;;;;;7.97;7.30;;;21.60;99.90;;;;;;5034176;28;20182;-61
2023/06/29 02:03:43;;;;;;;7.73;7.00;;;21.60;99.90;;;;;;5036122;28;20248;-61
2023/06/29 02:06:09;;;;;;;10.47;8.53;;;21.60;99.90;;;;;;5038972;28;20178;-61
2023/06/29 02:08:34;;;;;;;8.37;7.77;;;21.50;99.90;;;;;;5016392;28;20271;-61
2023/06/29 02:11:00;;;;;;;9.93;8.00;;;21.50;99.90;;;;;;5045520;28;20528;-61
2023/06/29 02:13:26;;;;;;;9.33;8.57;;;21.50;99.90;;;;;;5051706;28;20352;-61
2023/06/29 02:15:52;;;;;;;9.73;8.83;;;21.50;99.90;;;;;;5036828;28;20530;-61
2023/06/29 02:18:18;;;;;;;8.70;7.77;;;21.50;99.90;;;;;;5034075;28;20273;-61
2023/06/29 02:20:43;;;;;;;10.37;8.30;;;21.50;99.90;;;;;;5037484;28;20173;-61
2023/06/29 02:23:09;;;;;;;9.07;8.23;;;21.50;99.90;;;;;;5046463;28;20171;-62
2023/06/29 02:25:35;;;;;;;8.20;7.60;;;21.50;99.90;;;;;;5033503;28;20277;-61
2023/06/29 02:28:01;;;;;;;8.70;7.93;;;21.50;99.90;;;;;;5037363;28;20205;-61
2023/06/29 02:30:26;;;;;;;8.30;7.60;;;21.50;99.90;;;;;;5052135;28;20208;-61
2023/06/29 02:32:52;;;;;;;7.90;6.90;;;21.40;99.90;;;;;;5034142;28;20638;-61
2023/06/29 02:35:18;;;;;;;9.07;8.37;;;21.40;99.90;;;;;;5033677;28;20179;-61
2023/06/29 02:37:44;;;;;;;8.53;7.93;;;21.50;99.90;;;;;;5034526;28;20295;-61
2023/06/29 02:40:10;;;;;;;9.13;8.23;;;21.40;99.90;;;;;;5033778;28;20228;-62
2023/06/29 02:42:36;;;;;;;9.33;8.53;;;21.40;99.90;;;;;;5032942;28;20178;-61
2023/06/29 02:45:02;;;;;;;9.13;8.33;;;21.40;99.90;;;;;;5035675;28;20935;-61
2023/06/29 02:47:28;;;;;;;8.43;7.73;;;21.40;99.90;;;;;;5036895;28;20559;-61
2023/06/29 02:49:55;;;;;;;9.50;8.70;;;21.40;99.90;;;;;;5033444;28;20964;-61
2023/06/29 02:52:21;;;;;;;11.30;8.90;;;21.40;99.90;;;;;;5039859;28;20180;-61
2023/06/29 02:54:47;;;;;;;9.53;8.77;;;21.40;99.90;;;;;;5033735;28;20777;-61
2023/06/29 02:57:12;;;;;;;9.93;9.03;;;21.40;99.90;;;;;;5033361;28;20429;-61
2023/06/29 02:59:38;;;;;;;9.33;8.53;;;21.40;99.90;;;;;;5033190;28;20178;-61
2023/06/29 03:02:05;;;;;;;8.97;8.13;;;21.40;99.90;;;;;;5045630;28;20197;-61
2023/06/29 03:04:30;;;;;;;9.30;8.50;;;21.30;99.90;;;;;;5032773;28;20417;-61
2023/06/29 03:06:56;;;;;;;9.77;8.97;;;21.30;99.90;;;;;;5033758;28;20425;-61
2023/06/29 03:09:22;;;;;;;9.10;8.30;;;21.40;99.90;;;;;;5032738;28;20602;-61
2023/06/29 03:11:47;;;;;;;9.27;8.37;;;21.40;99.90;;;;;;5033229;28;20183;-61
2023/06/29 03:14:13;;;;;;;8.87;8.07;;;21.40;99.90;;;;;;5043566;28;20527;-62
2023/06/29 03:16:39;;;;;;;8.90;7.80;;;21.40;99.90;;;;;;5039634;28;20174;-61
2023/06/29 03:19:05;;;;;;;8.57;7.90;;;21.40;99.90;;;;;;5048458;28;20254;-61
2023/06/29 03:21:30;;;;;;;9.50;8.60;;;21.40;99.90;;;;;;5039129;28;20429;-60
2023/06/29 03:23:56;;;;;;;10.23;8.03;;;21.40;99.90;;;;;;5037517;28;20257;-61
2023/06/29 03:26:22;;;;;;;8.10;7.50;;;21.40;99.90;;;;;;5043360;28;20186;-60
2023/06/29 03:28:48;;;;;;;8.80;8.00;;;21.40;99.90;;;;;;5032659;28;20205;-61
2023/06/29 03:31:14;;;;;;;10.37;8.17;;;21.40;99.90;;;;;;5032875;28;20189;-61
2023/06/29 03:33:39;;;;;;;8.67;8.07;;;21.40;99.90;;;;;;5032446;28;20619;-61
2023/06/29 03:36:09;;;;;;;8.70;7.97;;;21.40;99.90;;;;;;5040876;28;20644;-61
2023/06/29 03:38:35;;;;;;;9.57;8.67;;;21.40;99.90;;;;;;5039963;28;20810;-61
2023/06/29 03:41:01;;;;;;;10.13;9.30;;;21.40;99.90;;;;;;5032444;28;20425;-60
2023/06/29 03:43:26;;;;;;;8.30;7.60;;;21.40;99.90;;;;;;5032139;28;20423;-60
2023/06/29 03:45:52;;;;;;;9.30;8.60;;;21.40;99.90;;;;;;5032510;28;20174;-61
2023/06/29 03:48:20;;;;;;;8.73;8.13;;;21.40;99.90;;;;;;5031878;28;20209;-61
2023/06/29 03:50:46;;;;;;;9.57;8.87;;;21.40;99.90;;;;;;5032287;28;20178;-61
2023/06/29 03:53:11;;;;;;;11.17;8.83;;;21.40;99.90;;;;;;5032562;28;20475;-61
2023/06/29 03:55:37;;;;;;;10.93;9.37;;;21.40;99.90;;;;;;5034741;28;20225;-61
2023/06/29 03:58:03;;;;;;;9.60;8.80;;;21.40;99.90;;;;;;5052550;28;20636;-61
2023/06/29 04:00:29;;;;;;;8.90;8.17;;;21.40;99.90;;;;;;5017972;28;20268;-61
2023/06/29 04:02:54;;;;;;;8.20;7.50;;;21.40;99.90;;;;;;5032408;28;20229;-61
2023/06/29 04:05:20;;;;;;;9.03;8.33;;;21.40;99.90;;;;;;5032885;28;20162;-61
2023/06/29 04:07:46;;;;;;;12.37;8.00;;;21.40;99.90;;;;;;5031058;28;20293;-61
2023/06/29 04:10:11;;;;;;;9.07;8.20;;;21.50;99.90;;;;;;5032656;28;20185;-61
2023/06/29 04:12:38;;;;;;;10.40;8.00;;;21.50;99.90;;;;;;5031693;28;20174;-61
2023/06/29 04:15:04;;;;;;;9.90;9.00;;;21.50;99.90;;;;;;5032201;28;20595;-61
2023/06/29 04:17:30;;;;;;;9.23;8.30;;;21.50;99.90;;;;;;5036535;28;20419;-61
2023/06/29 04:19:56;;;;;;;9.80;9.00;;;21.50;99.90;;;;;;5032631;28;20421;-61
2023/06/29 04:22:22;;;;;;;10.03;9.00;;;21.50;99.90;;;;;;5044650;28;20189;-61
2023/06/29 04:24:47;;;;;;;9.53;8.63;;;21.60;99.90;;;;;;5050613;28;20177;-61
2023/06/29 04:27:13;;;;;;;9.47;8.57;;;21.50;99.90;;;;;;5032163;28;20171;-61
2023/06/29 04:29:40;;;;;;;9.77;8.87;;;21.60;99.90;;;;;;5038951;28;20243;-61
2023/06/29 04:32:06;;;;;;;9.43;8.53;;;21.50;99.90;;;;;;5046379;28;20224;-61
2023/06/29 04:34:32;;;;;;;9.57;8.47;;;21.50;99.90;;;;;;5046392;28;20907;-61
2023/06/29 04:37:01;;;;;;;10.30;9.30;;;21.50;99.90;;;;;;5037595;28;20428;-61
2023/06/29 04:39:27;;;;;;;11.23;9.50;;;21.60;99.90;;;;;;5048986;28;20574;-61
2023/06/29 04:42:01;;;;;;;10.03;9.03;;;21.60;99.90;;;;;;5032258;28;20479;-61
2023/06/29 04:44:32;;;;;;;9.73;8.83;;;21.60;99.90;;;;;;5036170;28;20808;-61
2023/06/29 04:47:00;;;;;;;10.03;9.13;;;21.60;99.90;;;;;;5052540;28;20385;-61
2023/06/29 04:49:36;;;;;;;10.07;9.10;;;21.70;99.90;;;;;;5045094;28;20560;-61
2023/06/29 04:52:03;;;;;;;9.50;8.70;;;21.70;99.90;;;;;;5046532;28;20424;-61
2023/06/29 04:54:29;;;;;;;10.50;9.50;;;21.60;99.90;;;;;;5034676;28;20934;-61
2023/06/29 04:56:56;;;;;;;11.83;10.83;;;21.60;99.90;;;;;;5037257;28;20453;-61
2023/06/29 04:59:23;;;;;;;10.20;9.20;;;21.70;99.90;;;;;;5045485;28;20420;-61
2023/06/29 05:01:52;;;;;;;10.07;9.07;;;21.70;99.90;;;;;;5032231;28;20448;-61
2023/06/29 05:04:17;;;;;;;9.53;8.73;;;21.70;99.90;;;;;;5032606;28;20899;-61
2023/06/29 05:06:43;;;;;;;9.20;8.40;;;21.60;99.90;;;;;;5040193;28;20679;-61
2023/06/29 05:09:10;;;;;;;9.90;9.00;;;21.70;99.90;;;;;;5033480;28;20268;-61
2023/06/29 05:11:35;;;;;;;8.77;7.87;;;21.70;99.90;;;;;;5045335;28;20219;-61
2023/06/29 05:14:01;;;;;;;10.40;9.40;;;21.80;99.90;;;;;;5032596;28;20508;-61
2023/06/29 05:16:27;;;;;;;10.93;9.77;;;21.80;99.90;;;;;;5034233;28;20178;-61
2023/06/29 05:18:52;;;;;;;9.50;8.67;;;21.90;99.90;;;;;;5016902;28;20186;-61
2023/06/29 05:21:18;;;;;;;16.00;14.30;;;21.80;99.90;;;;;;5035836;28;20629;-61
2023/06/29 05:23:44;;;;;;;10.83;9.73;;;21.80;99.90;;;;;;5035071;28;20202;-61
2023/06/29 05:26:10;;;;;;;8.87;7.97;;;21.70;99.90;;;;;;5036629;28;20174;-61
2023/06/29 05:28:35;;;;;;;9.63;8.83;;;21.70;99.90;;;;;;5024938;28;20551;-61
2023/06/29 05:31:01;;;;;;;9.77;8.77;;;21.70;99.90;;;;;;5038042;28;20237;-61
2023/06/29 05:33:27;;;;;;;8.50;7.80;;;21.70;99.90;;;;;;5035162;28;20733;-61
2023/06/29 05:35:53;;;;;;;8.77;8.00;;;21.80;99.90;;;;;;5038773;28;20232;-61
2023/06/29 05:38:19;;;;;;;14.27;11.83;;;21.80;99.90;;;;;;5039693;28;20978;-61
2023/06/29 05:40:44;;;;;;;11.50;8.20;;;21.80;99.90;;;;;;5054675;28;20610;-61
2023/06/29 05:43:10;;;;;;;11.43;8.60;;;21.90;99.90;;;;;;5051035;28;20188;-62
2023/06/29 05:45:36;;;;;;;9.13;8.27;;;21.90;99.90;;;;;;5050502;28;20216;-61
2023/06/29 05:48:02;;;;;;;14.73;13.33;;;21.90;99.90;;;;;;5053633;28;20201;-61
2023/06/29 05:50:28;;;;;;;16.60;10.17;;;22.00;99.90;;;;;;5040750;28;20420;-61
2023/06/29 05:52:54;;;;;;;14.80;11.37;;;22.00;99.90;;;;;;5044304;28;20788;-60
2023/06/29 05:55:19;;;;;;;9.47;8.57;;;22.00;99.90;;;;;;5048858;28;20232;-60
2023/06/29 05:57:45;;;;;;;11.97;9.20;;;22.10;99.90;;;;;;5043737;28;20190;-61
2023/06/29 06:00:12;;;;;;;11.73;10.63;;;22.10;99.90;;;;;;5035103;28;20209;-61
2023/06/29 06:02:40;;;;;;;10.37;9.33;;;22.10;99.90;;;;;;5020098;28;20541;-60
2023/06/29 06:05:09;;;;;;;10.47;9.50;;;22.20;99.90;;;;;;5040687;28;20441;-61
2023/06/29 06:07:35;;;;;;;9.27;8.47;;;22.20;99.90;;;;;;5035206;28;20456;-60
2023/06/29 06:10:01;;;;;;;8.43;7.60;;;22.30;99.90;;;;;;5035461;28;20437;-61
2023/06/29 06:12:29;;;;;;;10.97;10.07;;;22.30;99.90;;;;;;5042737;28;20178;-61
2023/06/29 06:14:56;;;;;;;9.37;8.20;;;22.30;99.90;;;;;;5043215;28;20427;-61
2023/06/29 06:17:21;;;;;;;8.97;8.10;;;22.30;99.90;;;;;;5038400;28;20424;-61
2023/06/29 06:19:47;;;;;;;12.53;8.17;;;22.30;99.90;;;;;;5022383;28;20772;-60
2023/06/29 06:22:13;;;;;;;12.40;9.20;;;22.30;99.90;;;;;;5050221;28;20189;-61
2023/06/29 06:24:39;;;;;;;9.50;8.60;;;22.40;99.90;;;;;;5049468;28;20170;-60
2023/06/29 06:27:04;;;;;;;8.97;8.10;;;22.40;99.90;;;;;;5041976;28;20190;-60
2023/06/29 06:29:30;;;;;;;9.20;8.30;;;22.50;99.90;;;;;;5034517;28;20213;-61
2023/06/29 06:31:56;;;;;;;10.00;9.10;;;22.50;99.90;;;;;;5042243;28;20177;-61
2023/06/29 06:34:22;;;;;;;9.07;8.37;;;22.50;99.90;;;;;;5034028;28;20256;-60
2023/06/29 06:36:48;;;;;;;8.47;7.57;;;22.50;99.90;;;;;;5016180;28;20166;-61
2023/06/29 06:39:18;;;;;;;10.23;9.33;;;22.60;99.90;;;;;;5041218;28;20217;-60
2023/06/29 06:41:44;;;;;;;9.70;8.90;;;22.60;99.90;;;;;;5033274;28;20413;-60
2023/06/29 06:44:09;;;;;;;9.30;8.50;;;22.70;99.90;;;;;;5034026;28;20761;-61
2023/06/29 06:46:35;;;;;;;7.53;7.03;;;22.70;99.90;;;;;;5033381;28;20413;-60
2023/06/29 06:49:01;;;;;;;8.67;7.97;;;22.70;99.90;;;;;;5052531;28;20209;-60
2023/06/29 06:51:28;;;;;;;10.73;7.70;;;22.70;99.90;;;;;;5036215;28;20190;-60
2023/06/29 06:53:55;;;;;;;7.30;6.60;;;22.70;99.90;;;;;;5015203;28;20733;-60
2023/06/29 06:56:22;;;;;;;9.33;8.50;;;22.70;99.90;;;;;;5038562;28;20260;-60
2023/06/29 06:58:48;;;;;;;7.30;6.60;;;22.60;99.90;;;;;;5033991;28;20449;-60
2023/06/29 07:01:16;;;;;;;12.97;8.33;;;22.60;99.90;;;;;;5051556;28;20466;-60
2023/06/29 07:03:41;;;;;;;7.50;6.83;;;22.70;99.90;;;;;;5044488;28;20819;-60
2023/06/29 07:06:07;;;;;;;8.60;7.87;;;22.70;99.90;;;;;;5033968;28;20405;-60
2023/06/29 07:08:34;;;;;;;8.93;8.33;;;22.80;99.90;;;;;;5034343;28;20271;-60
2023/06/29 07:11:00;;;;;;;8.57;7.80;;;22.80;99.90;;;;;;5048507;28;20227;-60
2023/06/29 07:13:26;;;;;;;8.03;7.43;;;22.90;99.90;;;;;;5051238;28;20896;-60
2023/06/29 07:15:52;;;;;;;7.20;6.50;;;22.90;99.90;;;;;;5036459;28;20189;-60
2023/06/29 07:18:18;;;;;;;8.37;6.37;;;23.00;99.90;;;;;;5041986;28;20235;-60
2023/06/29 07:20:44;;;;;;;7.53;6.83;;;23.10;99.90;;;;;;5052256;28;20201;-60
2023/06/29 07:23:10;;;;;;;6.97;6.47;;;23.20;99.90;;;;;;5034957;28;20456;-61
2023/06/29 07:25:36;;;;;;;7.33;6.63;;;23.20;99.90;;;;;;5036836;28;20182;-61
2023/06/29 07:28:02;;;;;;;7.20;6.60;;;23.30;99.90;;;;;;5047340;28;20494;-61
2023/06/29 07:30:27;;;;;;;8.63;7.67;;;23.40;99.90;;;;;;5049457;28;20829;-61
2023/06/29 07:32:53;;;;;;;7.33;6.73;;;23.50;99.90;;;;;;5041838;28;20166;-61
2023/06/29 07:35:19;;;;;;;7.33;6.83;;;23.60;99.90;;;;;;5047548;28;20181;-60
2023/06/29 07:37:44;;;;;;;7.63;6.90;;;23.70;99.90;;;;;;5045360;28;20193;-60
2023/06/29 07:40:10;;;;;;;6.37;5.87;;;23.80;99.90;;;;;;5032933;28;20309;-60
2023/06/29 07:42:37;;;;;;;6.87;6.37;;;23.80;99.90;;;;;;5032601;28;20704;-61
2023/06/29 07:45:04;;;;;;;7.20;6.63;;;23.90;99.90;;;;;;5032401;28;20631;-61
2023/06/29 07:47:30;;;;;;;7.40;6.80;;;23.90;99.90;;;;;;5033155;28;20412;-63
2023/06/29 07:49:55;;;;;;;8.50;7.70;;;23.90;99.90;;;;;;5031675;28;20421;-62
2023/06/29 07:52:22;;;;;;;9.27;8.57;;;23.90;99.90;;;;;;5040021;28;20190;-62
2023/06/29 07:54:49;;;;;;;7.70;6.90;;;23.90;99.90;;;;;;5045677;28;20169;-62
2023/06/29 07:57:15;;;;;;;7.77;7.07;;;23.90;99.90;;;;;;5050230;28;20420;-62
2023/06/29 07:59:41;;;;;;;7.33;6.73;;;24.00;99.90;;;;;;5022470;28;20429;-62
2023/06/29 08:02:07;;;;;;;6.20;5.70;;;23.90;99.90;;;;;;5035314;28;20432;-62
2023/06/29 08:04:33;;;;;;;6.53;6.10;;;23.90;99.90;;;;;;5049895;28;20578;-62
2023/06/29 08:06:58;;;;;;;5.97;5.67;;;23.80;99.90;;;;;;5033503;28;20433;-62
2023/06/29 08:09:24;;;;;;;6.90;6.30;;;23.70;99.90;;;;;;5031751;28;20511;-64
2023/06/29 08:11:50;;;;;;;7.40;6.90;;;23.60;99.90;;;;;;5036471;28;20648;-62
2023/06/29 08:14:16;;;;;;;24.20;19.03;;;23.60;99.90;;;;;;5031923;28;20684;-62
2023/06/29 08:16:42;;;;;;;6.40;5.90;;;23.70;99.90;;;;;;5032659;28;20182;-62
2023/06/29 08:19:07;;;;;;;5.80;5.40;;;23.70;99.90;;;;;;5035408;28;20534;-58
2023/06/29 08:21:33;;;;;;;6.00;5.50;;;23.50;99.90;;;;;;5014437;28;20608;-58
2023/06/29 08:23:59;;;;;;;5.83;5.43;;;23.60;99.90;;;;;;5030882;28;20185;-58
2023/06/29 08:26:25;;;;;;;5.03;4.73;;;23.50;99.90;;;;;;5031932;28;20628;-58
2023/06/29 08:28:51;;;;;;;5.90;5.50;;;23.50;99.90;;;;;;5031421;28;20231;-58
2023/06/29 08:31:18;;;;;;;5.87;5.57;;;23.50;99.90;;;;;;5032752;28;20200;-58
2023/06/29 08:33:45;;;;;;;8.10;6.37;;;23.50;99.90;;;;;;5048600;28;20435;-66
2023/06/29 08:36:11;;;;;;;5.70;5.30;;;23.40;99.80;;;;;;5050695;28;20412;-58
2023/06/29 08:38:37;;;;;;;6.73;6.13;;;23.40;99.90;;;;;;5039153;28;20457;-58
2023/06/29 08:41:05;;;;;;;5.10;4.80;;;23.40;99.90;;;;;;5032793;28;21924;-58
2023/06/29 08:43:31;;;;;;;6.27;5.77;;;23.50;99.90;;;;;;5044001;28;20623;-58
2023/06/29 08:45:56;;;;;;;5.90;5.40;;;23.50;99.90;;;;;;5046577;28;20457;-59
2023/06/29 08:48:23;;;;;;;5.77;5.30;;;23.60;99.90;;;;;;5035458;28;20292;-59
2023/06/29 08:50:56;;;;;;;7.30;6.70;;;23.60;99.90;;;;;;5040274;28;20182;-58
2023/06/29 08:53:22;;;;;;;6.17;5.73;;;23.60;99.90;;;;;;5045251;28;20412;-58
2023/06/29 08:55:48;;;;;;;6.83;5.90;;;23.70;99.90;;;;;;5052048;28;20802;-59
2023/06/29 08:58:14;;;;;;;6.40;5.90;;;23.70;99.90;;;;;;5045865;28;20887;-58
2023/06/29 09:00:42;;;;;;;6.33;5.80;;;23.70;99.90;;;;;;5036332;28;20434;-58
2023/06/29 09:03:08;;;;;;;6.53;6.03;;;23.70;99.90;;;;;;5035883;28;20182;-58
2023/06/29 09:05:37;;;;;;;6.47;5.70;;;23.60;99.90;;;;;;5046321;28;20507;-58
2023/06/29 09:08:03;;;;;;;6.40;5.90;;;23.60;99.90;;;;;;5053338;28;20555;-58
2023/06/29 09:10:29;;;;;;;6.13;5.50;;;23.60;99.90;;;;;;5036066;28;20428;-58
2023/06/29 09:12:55;;;;;;;6.70;6.30;;;23.70;99.90;;;;;;5045664;28;20917;-58
2023/06/29 09:15:25;;;;;;;5.70;5.30;;;23.70;99.90;;;;;;5048692;28;20913;-58
2023/06/29 09:17:57;;;;;;;5.93;5.43;;;23.80;99.90;;;;;;5035930;28;20475;-58
2023/06/29 09:20:25;;;;;;;7.03;5.63;;;23.80;99.90;;;;;;5043333;28;20475;-58
2023/06/29 09:22:51;;;;;;;6.43;5.67;;;23.80;99.50;;;;;;5040239;28;20413;-58
2023/06/29 09:25:18;;;;;;;5.87;5.47;;;23.80;99.90;;;;;;5050441;28;20428;-58
2023/06/29 09:27:44;;;;;;;6.03;5.63;;;23.80;99.90;;;;;;5050780;28;20947;-62
2023/06/29 09:30:18;;;;;;;5.23;4.93;;;23.90;99.90;;;;;;5041614;28;20423;-58
2023/06/29 09:32:46;;;;;;;5.50;5.10;;;23.90;99.90;;;;;;5041937;28;20752;-58
2023/06/29 09:35:12;;;;;;;7.37;5.70;;;23.90;99.90;;;;;;5035574;28;20397;-58
2023/06/29 09:37:40;;;;;;;7.30;6.70;;;23.90;99.90;;;;;;5054179;28;20182;-59
2023/06/29 09:40:11;;;;;;;6.30;5.80;;;23.90;99.90;;;;;;5043381;28;20229;-58
2023/06/29 09:42:37;;;;;;;5.80;5.40;;;23.90;99.80;;;;;;5035545;28;20409;-58
2023/06/29 09:45:14;;;;;;;5.73;5.37;;;23.80;99.90;;;;;;5053048;28;20412;-58
2023/06/29 09:47:47;;;;;;;5.93;5.63;;;23.90;99.90;;;;;;5045232;28;20611;-58
2023/06/29 09:50:21;;;;;;;5.80;5.30;;;24.00;99.90;;;;;;5046781;28;20424;-62
2023/06/29 09:52:48;;;;;;;5.53;4.97;;;24.00;99.90;;;;;;5041996;28;20412;-72
2023/06/29 09:55:14;;;;;;;20.30;18.40;;;24.00;99.90;;;;;;5036012;28;20428;-61
2023/06/29 09:57:49;;;;;;;6.70;6.20;;;24.00;99.90;;;;;;5034488;28;20504;-62
2023/06/29 10:00:18;;;;;;;7.27;5.53;;;24.00;99.80;;;;;;5034286;28;20887;-62
2023/06/29 10:02:43;;;;;;;6.27;5.87;;;23.80;99.90;;;;;;5034933;28;20397;-62
2023/06/29 10:05:10;;;;;;;17.50;15.90;;;23.80;99.90;;;;;;5033293;28;20764;-62
2023/06/29 10:07:37;;;;;;;7.60;6.20;;;23.90;99.90;;;;;;5034179;28;20176;-62
2023/06/29 10:10:06;;;;;;;6.53;5.70;;;24.00;99.90;;;;;;5038182;28;20436;-62
2023/06/29 10:12:33;;;;;;;6.87;6.37;;;24.00;99.90;;;;;;5034625;28;20408;-62
2023/06/29 10:15:08;;;;;;;5.93;5.33;;;23.90;99.90;;;;;;5033118;28;20421;-62
2023/06/29 10:17:46;;;;;;;7.17;6.57;;;23.90;99.90;;;;;;5035850;28;20936;-62
2023/06/29 10:20:14;;;;;;;6.73;6.33;;;24.00;99.90;;;;;;5050280;28;20504;-62
2023/06/29 10:22:41;;;;;;;12.37;11.27;;;24.00;99.90;;;;;;5034657;28;20421;-62
2023/06/29 10:25:11;;;;;;;8.07;7.47;;;24.20;99.90;;;;;;5033290;28;21012;-65
2023/06/29 10:27:39;;;;;;;7.50;6.97;;;24.30;99.90;;;;;;5037493;28;20456;-66
2023/06/29 10:30:06;;;;;;;7.97;7.23;;;24.30;99.90;;;;;;5033156;28;20892;-66
2023/06/29 10:32:33;;;;;;;81.93;67.27;;;24.40;98.60;;;;;;5033222;28;20467;-65
2023/06/29 10:35:01;;;;;;;30.53;27.43;;;24.50;98.30;;;;;;5038998;28;20581;-66
2023/06/29 10:37:49;;;;;;;40.43;36.13;;;24.50;98.50;;;;;;5034238;28;20409;-65
2023/06/29 10:40:20;;;;;;;12.50;11.40;;;24.50;97.70;;;;;;5037618;28;20308;-66
2023/06/29 10:42:45;;;;;;;11.40;10.30;;;24.50;97.70;;;;;;5033911;28;20417;-66
2023/06/29 10:45:17;;;;;;;10.20;9.40;;;24.60;98.50;;;;;;5015277;28;20436;-68
2023/06/29 10:47:45;;;;;;;9.77;8.90;;;24.60;98.10;;;;;;5034140;28;20644;-65
2023/06/29 10:50:10;;;;;;;8.23;7.63;;;24.60;97.90;;;;;;5048439;28;20492;-64
2023/06/29 10:52:40;;;;;;;9.77;8.87;;;24.60;97.60;;;;;;5031481;28;20936;-66
2023/06/29 10:55:23;;;;;;;11.20;10.10;;;24.60;97.70;;;;;;5033168;28;20610;-65
2023/06/29 10:58:13;;;;;;;8.47;7.67;;;24.60;99.30;;;;;;5033122;28;20436;-71
2023/06/29 11:00:40;;;;;;;9.33;8.43;;;24.60;99.30;;;;;;5041111;28;20432;-65
2023/06/29 11:03:07;;;;;;;8.90;8.07;;;24.60;99.00;;;;;;5046905;28;20771;-66
2023/06/29 11:05:34;;;;;;;8.70;8.00;;;24.60;98.30;;;;;;5033158;28;20952;-66
2023/06/29 11:08:00;;;;;;;9.27;8.57;;;24.60;98.50;;;;;;5046941;28;20812;-66
2023/06/29 11:10:25;;;;;;;8.37;7.67;;;24.60;99.10;;;;;;5044153;28;20430;-66
2023/06/29 11:12:55;;;;;;;9.00;8.30;;;24.60;99.20;;;;;;5051209;28;20162;-66
2023/06/29 11:15:22;;;;;;;9.80;8.90;;;24.70;99.20;;;;;;5032832;28;20183;-65
2023/06/29 11:17:50;;;;;;;9.40;8.70;;;24.70;99.70;;;;;;5032839;28;20775;-65
2023/06/29 11:20:18;;;;;;;10.63;8.87;;;24.70;99.90;;;;;;5032541;28;20437;-64
2023/06/29 11:22:45;;;;;;;9.73;8.93;;;24.70;99.90;;;;;;5032959;28;20425;-65
2023/06/29 11:25:14;;;;;;;10.97;9.97;;;24.70;99.00;;;;;;5031940;28;20417;-65
2023/06/29 11:27:45;;;;;;;9.33;8.50;;;24.80;98.50;;;;;;5032410;28;20897;-67
2023/06/29 11:30:12;;;;;;;9.57;8.77;;;24.80;98.20;;;;;;5033974;28;20440;-68
2023/06/29 11:32:41;;;;;;;9.73;8.83;;;24.90;98.80;;;;;;5023767;28;20505;-65
2023/06/29 11:35:11;;;;;;;9.90;9.00;;;24.90;97.90;;;;;;5031567;28;20409;-70
2023/06/29 11:37:38;;;;;;;10.17;9.27;;;25.00;98.00;;;;;;5034296;28;20941;-66
2023/06/29 11:40:14;;;;;;;10.53;9.30;;;25.00;98.20;;;;;;5032356;28;20886;-66
2023/06/29 11:42:42;;;;;;;9.90;9.03;;;25.10;97.90;;;;;;5018675;28;20428;-65
2023/06/29 11:45:08;;;;;;;11.87;10.00;;;25.10;98.10;;;;;;5031873;28;20413;-59
2023/06/29 11:47:37;;;;;;;9.40;8.50;;;25.20;97.60;;;;;;5032039;28;20421;-59
2023/06/29 11:50:07;;;;;;;8.93;8.13;;;25.20;96.80;;;;;;5031795;28;20797;-59
2023/06/29 11:52:34;;;;;;;9.30;8.53;;;25.30;97.50;;;;;;5015885;28;20810;-59
2023/06/29 11:55:02;;;;;;;8.67;7.87;;;25.30;98.00;;;;;;5031662;28;20425;-60
2023/06/29 11:57:32;;;;;;;12.40;9.30;;;25.40;97.00;;;;;;5033976;28;20812;-59
2023/06/29 11:59:58;;;;;;;10.87;9.80;;;25.50;96.80;;;;;;5032067;28;20423;-59
2023/06/29 12:02:23;;;;;;;9.60;8.60;;;25.50;97.50;;;;;;5033529;28;20425;-58
2023/06/29 12:05:03;;;;;;;8.37;7.67;;;25.60;96.80;;;;;;5050787;28;20235;-59
2023/06/29 12:07:43;;;;;;;8.53;7.67;;;25.70;97.10;;;;;;5044912;28;20253;-58
2023/06/29 12:10:13;;;;;;;11.33;10.30;;;25.80;96.60;;;;;;5031649;28;20940;-59
2023/06/29 12:13:00;;;;;;;8.23;7.50;;;25.90;96.40;;;;;;5050647;28;20416;-59
2023/06/29 12:15:27;;;;;;;8.63;7.93;;;26.00;96.60;;;;;;5040276;28;20559;-59
2023/06/29 12:18:12;;;;;;;9.20;8.30;;;26.10;96.50;;;;;;5040433;28;20499;-61
2023/06/29 12:20:40;;;;;;;9.80;8.90;;;26.10;96.20;;;;;;5032926;28;20429;-59
2023/06/29 12:23:07;;;;;;;10.40;9.50;;;26.10;95.60;;;;;;5031221;28;20490;-60
2023/06/29 12:25:41;;;;;;;11.50;9.23;;;26.00;94.50;;;;;;5047462;28;20430;-59
2023/06/29 12:28:07;;;;;;;10.73;10.00;;;26.00;94.30;;;;;;5031356;28;20586;-67
2023/06/29 12:30:32;;;;;;;12.17;11.17;;;26.00;94.40;;;;;;5040473;28;20515;-59
2023/06/29 12:32:59;;;;;;;10.40;9.43;;;26.00;94.60;;;;;;5049917;28;20197;-59
2023/06/29 12:35:25;;;;;;;9.57;8.87;;;25.90;93.90;;;;;;5045605;28;20645;-60
2023/06/29 12:37:53;;;;;;;8.73;8.03;;;25.90;94.10;;;;;;5036937;28;20421;-60
2023/06/29 12:40:19;;;;;;;8.90;8.20;;;25.90;94.30;;;;;;5039021;28;20284;-60
2023/06/29 12:42:44;;;;;;;8.73;8.03;;;25.80;94.50;;;;;;5037715;28;20421;-59